Time;durP1;ratioP1;P1;durP2;ratioP2;P2;SDS_P1;SDS_P2;PMS_P1;PMS_P2;Temp;Humidity;BMP_temperature;BMP_pressure;BME280_temperature;BME280_humidity;BME280_pressure;Samples;Min_cycle;Max_cycle;Signal;HPM_P1;HPM_P2
2022/05/22 00:00:12;;;;;;;3.27;2.80;;;12.20;99.90;12.20;100741.00;;;;4958300;28;87783;-68
2022/05/22 00:02:39;;;;;;;1.97;1.70;;;12.20;99.90;12.10;100739.00;;;;4958774;28;87901;-68
2022/05/22 00:05:07;;;;;;;1.40;1.30;;;12.10;99.90;12.10;100733.00;;;;4958214;28;87852;-68
2022/05/22 00:07:32;;;;;;;11.27;1.33;;;12.10;99.90;12.00;100730.00;;;;4972969;28;88008;-67
2022/05/22 00:09:59;;;;;;;2.57;1.37;;;12.00;99.90;11.90;100727.00;;;;4958182;28;117003;-69
2022/05/22 00:12:25;;;;;;;6.93;2.10;;;12.00;99.90;11.90;100739.00;;;;4958913;28;87667;-68
2022/05/22 00:14:50;;;;;;;2.97;1.77;;;11.90;99.90;11.80;100738.00;;;;4957942;28;108766;-68
2022/05/22 00:17:16;;;;;;;2.17;1.90;;;11.80;99.90;11.80;100742.00;;;;4956525;28;118079;-68
2022/05/22 00:20:07;;;;;;;1.43;1.33;;;11.80;99.90;11.70;100744.00;;;;4957358;28;98996;-68
2022/05/22 00:22:33;;;;;;;1.17;1.07;;;11.80;99.90;11.70;100749.00;;;;4946647;28;101840;-68
2022/05/22 00:25:29;;;;;;;1.90;1.77;;;11.70;99.90;11.60;100742.00;;;;4956703;28;108774;-68
2022/05/22 00:27:55;;;;;;;2.97;1.90;;;11.70;99.90;11.60;100741.00;;;;4954694;28;117172;-68
2022/05/22 00:30:21;;;;;;;2.37;1.50;;;11.60;99.90;11.60;100733.00;;;;4957237;28;117284;-68
2022/05/22 00:32:49;;;;;;;1.90;1.80;;;11.60;99.90;11.60;100738.00;;;;4958681;28;87620;-68
2022/05/22 00:35:15;;;;;;;1.70;1.23;;;11.60;99.90;11.50;100739.00;;;;4939881;28;87120;-68
2022/05/22 00:37:40;;;;;;;2.40;2.20;;;11.60;99.90;11.50;100741.00;;;;4956484;28;118618;-68
2022/05/22 00:40:07;;;;;;;6.23;2.70;;;11.50;99.90;11.50;100735.00;;;;4956657;28;116322;-68
2022/05/22 00:42:33;;;;;;;1.40;1.20;;;11.50;99.90;11.50;100744.00;;;;4957240;28;88906;-68
2022/05/22 00:44:59;;;;;;;4.43;1.53;;;11.50;99.90;11.40;100733.00;;;;4967508;28;87761;-68
2022/05/22 00:47:24;;;;;;;1.63;1.27;;;11.50;99.90;11.40;100736.00;;;;4957655;28;88912;-68
2022/05/22 00:49:59;;;;;;;7.27;1.93;;;11.40;99.90;11.40;100732.00;;;;4956540;28;98993;-68
2022/05/22 00:52:34;;;;;;;4.70;1.87;;;11.40;99.90;11.40;100740.00;;;;4971590;28;87673;-68
2022/05/22 00:55:09;;;;;;;2.20;1.40;;;11.40;99.90;11.40;100730.00;;;;4957996;28;87957;-69
2022/05/22 00:57:43;;;;;;;5.07;1.83;;;11.40;99.90;11.40;100731.00;;;;4971961;28;100431;-68
2022/05/22 01:00:19;;;;;;;1.60;1.50;;;11.40;99.90;11.40;100721.00;;;;4939111;28;89184;-68
2022/05/22 01:05:32;;;;;;;2.73;1.87;;;11.40;99.90;11.40;100730.00;;;;4970723;28;87768;-68
2022/05/22 01:07:59;;;;;;;4.33;1.50;;;11.40;99.90;11.40;100730.00;;;;4959286;28;112593;-68
2022/05/22 01:10:34;;;;;;;3.50;2.17;;;11.40;99.90;11.40;100740.00;;;;4960097;28;115252;-68
2022/05/22 01:13:01;;;;;;;3.33;1.60;;;11.40;99.90;11.40;100733.00;;;;4974622;28;87864;-68
2022/05/22 01:15:27;;;;;;;1.87;1.77;;;11.40;99.90;11.50;100741.00;;;;4959884;28;109618;-68
2022/05/22 01:17:53;;;;;;;5.10;1.77;;;11.50;99.90;11.50;100741.00;;;;4959931;28;117847;-68
2022/05/22 01:20:19;;;;;;;2.87;1.90;;;11.40;99.90;11.50;100739.00;;;;4960190;28;88324;-68
2022/05/22 01:22:45;;;;;;;3.20;1.77;;;11.50;99.90;11.40;100725.00;;;;4960059;28;90422;-67
2022/05/22 01:25:11;;;;;;;2.17;1.77;;;11.50;99.90;11.40;100732.00;;;;4959246;28;108827;-68
2022/05/22 01:27:39;;;;;;;4.17;1.53;;;11.40;99.90;11.40;100725.00;;;;4959691;28;117180;-69
2022/05/22 01:30:17;;;;;;;3.80;2.27;;;11.40;99.90;11.40;100735.00;;;;4941119;28;107591;-68
2022/05/22 01:32:46;;;;;;;3.17;1.90;;;11.40;99.90;11.40;100729.00;;;;4960650;28;88834;-68
2022/05/22 01:35:17;;;;;;;3.97;2.50;;;11.40;99.90;11.40;100734.00;;;;4941965;28;87663;-68
2022/05/22 01:37:43;;;;;;;3.67;1.50;;;11.40;99.90;11.40;100735.00;;;;4960354;28;88383;-69
2022/05/22 01:40:10;;;;;;;3.00;1.47;;;11.40;99.90;11.40;100733.00;;;;4941197;28;87804;-68
2022/05/22 01:42:38;;;;;;;3.67;1.30;;;11.40;99.90;11.40;100734.00;;;;4941885;28;87952;-68
2022/05/22 01:45:05;;;;;;;4.83;2.13;;;11.40;99.90;11.40;100728.00;;;;4969709;28;88960;-68
2022/05/22 01:47:37;;;;;;;2.63;1.43;;;11.50;99.90;11.40;100732.00;;;;4938506;28;88012;-69
2022/05/22 01:50:04;;;;;;;2.30;1.70;;;11.40;99.90;11.40;100732.00;;;;4944006;28;107582;-68
2022/05/22 01:52:30;;;;;;;2.43;1.77;;;11.40;99.90;11.30;100728.00;;;;4941785;28;87911;-68
2022/05/22 01:54:56;;;;;;;4.13;2.10;;;11.30;99.90;11.30;100726.00;;;;4959850;28;108270;-68
2022/05/22 01:57:22;;;;;;;2.27;1.50;;;11.30;99.90;11.30;100717.00;;;;4959078;28;113852;-68
2022/05/22 01:59:47;;;;;;;2.20;1.80;;;11.30;99.90;11.30;100718.00;;;;4959580;28;89402;-68
2022/05/22 02:02:13;;;;;;;1.73;1.63;;;11.30;99.90;11.40;100721.00;;;;4966398;28;97551;-69
2022/05/22 02:04:39;;;;;;;2.70;2.00;;;11.40;99.90;11.40;100720.00;;;;4959959;28;97499;-68
2022/05/22 02:09:49;;;;;;;1.73;1.63;;;11.30;99.90;11.30;100711.00;;;;4959613;28;87793;-68
2022/05/22 02:12:36;;;;;;;2.30;1.43;;;11.30;99.90;11.30;100714.00;;;;4958520;28;109806;-68
2022/05/22 02:15:03;;;;;;;3.60;2.17;;;11.30;99.90;11.30;100721.00;;;;4960770;28;86850;-68
2022/05/22 02:17:28;;;;;;;2.83;1.87;;;11.30;99.90;11.30;100720.00;;;;4959722;28;89178;-69
2022/05/22 02:19:54;;;;;;;4.00;2.40;;;11.30;99.90;11.20;100718.00;;;;4958782;28;87830;-68
2022/05/22 02:22:20;;;;;;;4.03;1.80;;;11.20;99.90;11.20;100718.00;;;;4959582;28;88639;-68
2022/05/22 02:24:50;;;;;;;3.97;1.63;;;11.20;99.90;11.20;100717.00;;;;4959898;28;87752;-68
2022/05/22 02:27:34;;;;;;;3.00;1.80;;;11.20;99.90;11.10;100715.00;;;;4941036;28;89334;-69
2022/05/22 02:30:01;;;;;;;3.10;2.17;;;11.20;99.90;11.10;100715.00;;;;4939949;28;116781;-68
2022/05/22 02:32:27;;;;;;;2.87;2.07;;;11.10;99.90;11.10;100716.00;;;;4960165;28;87764;-68
2022/05/22 02:34:53;;;;;;;2.80;2.00;;;11.10;99.90;11.10;100698.00;;;;4941383;28;87697;-68
2022/05/22 02:37:19;;;;;;;1.80;1.37;;;11.10;99.90;11.10;100722.00;;;;4959130;28;88805;-68
2022/05/22 02:39:45;;;;;;;2.23;1.60;;;11.10;99.90;11.10;100709.00;;;;4958880;28;117375;-67
2022/05/22 02:42:11;;;;;;;4.20;2.33;;;11.00;99.90;11.00;100724.00;;;;4958367;28;110704;-68
2022/05/22 02:44:36;;;;;;;2.63;2.10;;;11.00;99.90;11.10;100709.00;;;;4968898;28;88815;-68
2022/05/22 02:47:02;;;;;;;3.07;1.73;;;11.00;99.90;11.00;100711.00;;;;4938108;28;114146;-68
2022/05/22 02:49:28;;;;;;;2.23;1.90;;;11.10;99.90;11.00;100709.00;;;;4957992;28;89429;-68
2022/05/22 02:51:54;;;;;;;3.77;1.83;;;11.00;99.90;11.00;100704.00;;;;4959584;28;87725;-68
2022/05/22 02:54:21;;;;;;;3.00;2.30;;;11.00;99.90;11.00;100699.00;;;;4958521;28;109253;-68
2022/05/22 02:56:46;;;;;;;3.63;2.03;;;11.00;99.90;11.00;100705.00;;;;4959251;28;88837;-68
2022/05/22 02:59:12;;;;;;;3.40;2.00;;;11.00;99.90;10.90;100710.00;;;;4958204;28;117633;-67
2022/05/22 03:01:38;;;;;;;2.60;2.23;;;11.00;99.90;10.90;100705.00;;;;4959295;28;87593;-68
2022/05/22 03:04:04;;;;;;;1.57;1.47;;;10.90;99.90;10.90;100708.00;;;;4958975;28;108892;-68
2022/05/22 03:06:39;;;;;;;3.13;1.60;;;10.90;99.90;10.90;100708.00;;;;4958386;28;115638;-68
2022/05/22 03:09:14;;;;;;;6.00;1.20;;;10.90;99.90;10.80;100704.00;;;;4958705;28;87744;-68
2022/05/22 03:11:41;;;;;;;3.33;2.03;;;10.90;99.90;10.80;100699.00;;;;4958343;28;88405;-68
2022/05/22 03:14:07;;;;;;;2.33;1.83;;;10.80;99.90;10.80;100702.00;;;;4973354;28;96035;-67
2022/05/22 03:16:33;;;;;;;2.07;1.63;;;10.80;99.90;10.70;100701.00;;;;4958580;28;109608;-68
2022/05/22 03:18:59;;;;;;;2.77;2.20;;;10.80;99.90;10.70;100695.00;;;;4957840;28;117680;-68
2022/05/22 03:21:28;;;;;;;1.33;1.20;;;10.80;99.90;10.70;100704.00;;;;4958368;28;110581;-68
2022/05/22 03:23:54;;;;;;;2.57;1.73;;;10.70;99.90;10.70;100695.00;;;;4958092;28;87661;-68
2022/05/22 03:26:20;;;;;;;4.97;2.33;;;10.70;99.90;10.60;100700.00;;;;4957994;28;117792;-68
2022/05/22 03:28:45;;;;;;;3.80;1.97;;;10.60;99.90;10.60;100700.00;;;;4972635;28;117602;-67
2022/05/22 03:31:11;;;;;;;4.40;1.90;;;10.60;99.90;10.50;100698.00;;;;4957846;28;110694;-68
2022/05/22 03:33:37;;;;;;;4.00;2.10;;;10.60;99.90;10.50;100696.00;;;;4957919;28;87677;-67
2022/05/22 03:36:05;;;;;;;1.70;1.60;;;10.60;99.90;10.50;100698.00;;;;4958402;28;88980;-68
2022/05/22 03:38:31;;;;;;;2.87;1.93;;;10.60;99.90;10.40;100696.00;;;;4957704;28;89307;-67
2022/05/22 03:40:58;;;;;;;5.57;1.53;;;10.50;99.90;10.40;100699.00;;;;4958593;28;105091;-68
2022/05/22 03:43:24;;;;;;;2.60;2.13;;;10.40;99.90;10.30;100711.00;;;;4958560;28;87553;-68
2022/05/22 03:45:51;;;;;;;2.73;2.03;;;10.40;99.90;10.30;100707.00;;;;4957876;28;118471;-68
2022/05/22 03:48:16;;;;;;;2.37;1.87;;;10.40;99.90;10.30;100715.00;;;;4958605;28;87774;-68
2022/05/22 03:50:42;;;;;;;2.73;2.10;;;10.30;99.90;10.40;100710.00;;;;4958524;28;87852;-68
2022/05/22 03:53:08;;;;;;;3.50;1.97;;;10.40;99.90;10.40;100705.00;;;;4973682;28;107373;-68
2022/05/22 03:55:33;;;;;;;1.93;1.83;;;10.40;99.90;10.50;100710.00;;;;4959173;28;87700;-68
2022/05/22 03:57:59;;;;;;;3.03;1.37;;;10.50;99.90;10.60;100702.00;;;;4957538;28;117632;-68
2022/05/22 04:00:25;;;;;;;2.10;1.90;;;10.50;99.90;10.60;100710.00;;;;4957144;28;108496;-68
2022/05/22 04:02:51;;;;;;;2.10;1.63;;;10.60;99.90;10.60;100700.00;;;;4957778;28;98633;-68
2022/05/22 04:05:17;;;;;;;4.60;2.27;;;10.60;99.90;10.60;100701.00;;;;4958213;28;88302;-68
2022/05/22 04:07:47;;;;;;;1.87;1.57;;;10.60;99.90;10.60;100708.00;;;;4957942;28;89757;-68
2022/05/22 04:10:15;;;;;;;2.90;1.93;;;10.60;99.90;10.60;100709.00;;;;4957467;28;104136;-68
2022/05/22 04:12:44;;;;;;;2.20;1.83;;;10.60;99.90;10.60;100708.00;;;;4973275;28;87961;-67
2022/05/22 04:15:18;;;;;;;3.33;2.00;;;10.60;99.90;10.60;100702.00;;;;4957323;28;88653;-68
2022/05/22 04:17:45;;;;;;;3.23;1.80;;;10.60;99.90;10.60;100696.00;;;;4940521;28;87944;-68
2022/05/22 04:20:11;;;;;;;2.00;1.40;;;10.60;99.90;10.60;100687.00;;;;4958222;28;87687;-67
2022/05/22 04:25:23;;;;;;;4.93;1.60;;;10.60;99.90;10.60;100699.00;;;;4910970;28;90103;-68
2022/05/22 04:27:50;;;;;;;2.70;1.97;;;10.60;99.90;10.70;100709.00;;;;4957063;28;89126;-67
2022/05/22 04:30:19;;;;;;;2.53;1.67;;;10.60;99.90;10.70;100709.00;;;;4957944;28;87781;-68
2022/05/22 04:32:50;;;;;;;1.37;1.23;;;10.70;99.90;10.80;100710.00;;;;4958200;28;87891;-69
2022/05/22 04:35:17;;;;;;;3.57;2.27;;;10.70;99.90;10.90;100706.00;;;;4957110;28;109751;-69
2022/05/22 04:37:43;;;;;;;3.63;2.40;;;10.80;99.90;11.00;100716.00;;;;4960031;28;107862;-69
2022/05/22 04:40:11;;;;;;;2.73;2.30;;;10.90;99.90;11.00;100720.00;;;;4961406;28;87635;-69
2022/05/22 04:42:37;;;;;;;3.60;1.97;;;11.00;99.90;11.20;100720.00;;;;4962276;28;87170;-68
2022/05/22 04:45:06;;;;;;;1.97;1.50;;;11.10;99.90;11.30;100728.00;;;;4962806;28;89466;-69
2022/05/22 04:47:39;;;;;;;3.00;1.67;;;11.20;99.90;11.50;100732.00;;;;4942701;28;87904;-69
2022/05/22 04:50:05;;;;;;;1.67;1.40;;;11.40;99.90;11.60;100735.00;;;;4960793;28;88758;-68
2022/05/22 04:52:33;;;;;;;3.13;1.10;;;11.50;99.90;11.80;100725.00;;;;4961474;28;87828;-68
2022/05/22 04:54:58;;;;;;;2.97;1.10;;;11.70;99.90;12.00;100726.00;;;;4975396;28;88604;-68
2022/05/22 04:57:24;;;;;;;1.20;0.90;;;11.80;99.90;12.10;100716.00;;;;4961417;28;91840;-69
2022/05/22 04:59:50;;;;;;;1.10;1.00;;;12.00;99.90;12.20;100716.00;;;;4960255;28;109387;-68
2022/05/22 05:02:15;;;;;;;2.50;1.40;;;12.10;99.90;12.40;100723.00;;;;4960221;28;108354;-68
2022/05/22 05:04:41;;;;;;;1.80;1.33;;;12.30;99.90;12.50;100721.00;;;;4960305;28;109077;-68
2022/05/22 05:07:08;;;;;;;1.30;1.00;;;12.40;99.90;12.60;100721.00;;;;4960380;28;117799;-69
2022/05/22 05:09:35;;;;;;;4.63;0.97;;;12.50;99.90;12.70;100728.00;;;;4940915;28;87946;-69
2022/05/22 05:12:04;;;;;;;4.00;1.30;;;12.60;99.90;12.90;100724.00;;;;4961002;28;87707;-69
2022/05/22 05:14:29;;;;;;;5.57;1.50;;;12.70;99.90;13.10;100722.00;;;;4959716;28;90144;-68
2022/05/22 05:16:55;;;;;;;1.73;1.63;;;12.90;99.90;13.20;100725.00;;;;4957692;28;119635;-67
2022/05/22 05:19:21;;;;;;;2.30;1.33;;;13.10;99.90;13.40;100715.00;;;;4963963;28;109467;-67
2022/05/22 05:21:46;;;;;;;1.30;1.20;;;13.20;99.90;13.50;100724.00;;;;4970560;28;87842;-69
2022/05/22 05:24:12;;;;;;;1.20;1.10;;;13.40;99.90;13.70;100718.00;;;;4965804;28;117252;-68
2022/05/22 05:26:38;;;;;;;1.30;0.90;;;13.50;99.90;13.90;100717.00;;;;4961588;28;117708;-67
2022/05/22 05:29:03;;;;;;;2.97;0.73;;;13.70;99.90;14.00;100728.00;;;;4969831;28;87881;-67
2022/05/22 05:31:29;;;;;;;1.40;1.00;;;13.90;99.90;14.20;100729.00;;;;4967811;28;108134;-68
2022/05/22 05:33:55;;;;;;;1.60;1.00;;;14.00;99.90;14.40;100742.00;;;;4969918;28;89301;-69
2022/05/22 05:36:21;;;;;;;1.23;0.93;;;14.20;99.90;14.60;100737.00;;;;4960426;28;117050;-67
2022/05/22 05:38:46;;;;;;;0.70;0.70;;;14.40;99.90;14.80;100740.00;;;;4970747;28;110602;-67
2022/05/22 05:41:12;;;;;;;1.50;0.83;;;14.60;99.90;15.00;100743.00;;;;4973712;28;87883;-67
2022/05/22 05:43:38;;;;;;;1.10;0.67;;;14.80;99.90;15.10;100733.00;;;;4973968;28;88063;-69
2022/05/22 05:46:04;;;;;;;0.90;0.60;;;15.00;99.90;15.40;100736.00;;;;4931614;28;116380;-68
2022/05/22 05:48:29;;;;;;;0.30;0.30;;;15.20;99.90;15.50;100741.00;;;;4971632;28;109583;-68
2022/05/22 05:50:55;;;;;;;2.90;0.90;;;15.40;99.90;15.70;100738.00;;;;4963842;28;88112;-67
2022/05/22 05:53:21;;;;;;;1.40;0.77;;;15.60;99.90;15.90;100727.00;;;;4953430;28;89041;-68
2022/05/22 05:55:47;;;;;;;0.95;0.65;;;15.70;99.90;15.90;100734.00;;;;4956929;28;117325;-68
2022/05/22 05:58:13;;;;;;;0.80;0.80;;;15.80;99.90;16.00;100723.00;;;;4952400;28;91861;-67
2022/05/22 06:00:39;;;;;;;9.80;1.27;;;15.90;99.70;16.10;100720.00;;;;4969995;28;108965;-69
2022/05/22 06:03:07;;;;;;;0.17;0.17;;;16.00;98.00;16.20;100717.00;;;;4083546;28;10000769;-68
2022/05/22 06:05:32;;;;;;;1.52;0.60;;;16.10;97.30;16.30;100721.00;;;;4970219;28;88022;-69
2022/05/22 06:07:58;;;;;;;0.57;0.30;;;16.20;96.70;16.40;100724.00;;;;4972844;28;91140;-68
2022/05/22 06:10:24;;;;;;;1.33;0.90;;;16.30;95.30;16.50;100726.00;;;;4954566;28;117846;-67
2022/05/22 06:12:50;;;;;;;0.30;0.22;;;16.40;94.20;16.60;100726.00;;;;4958609;28;117654;-68
2022/05/22 06:15:16;;;;;;;0.35;0.35;;;16.50;93.70;16.70;100727.00;;;;4966417;28;102260;-68
2022/05/22 06:17:46;;;;;;;0.40;0.40;;;16.60;93.50;16.90;100725.00;;;;4951754;28;88085;-67
2022/05/22 06:20:17;;;;;;;1.85;0.47;;;16.70;91.90;17.10;100742.00;;;;4972972;28;87390;-67
2022/05/22 06:22:44;;;;;;;0.63;0.60;;;16.90;91.40;17.30;100734.00;;;;4972468;28;88124;-68
2022/05/22 06:25:13;;;;;;;0.73;0.47;;;17.10;90.30;17.40;100719.00;;;;4969009;28;87846;-68
2022/05/22 06:27:39;;;;;;;5.07;0.45;;;17.30;89.00;17.60;100729.00;;;;4972732;28;88931;-68
2022/05/22 06:30:12;;;;;;;2.83;0.88;;;17.50;89.00;17.80;100734.00;;;;4973241;28;87623;-68
2022/05/22 06:32:40;;;;;;;0.95;0.50;;;17.60;85.60;17.80;100721.00;;;;4940478;28;88824;-68
2022/05/22 06:35:10;;;;;;;1.85;0.50;;;17.70;83.60;17.90;100729.00;;;;4950320;28;87849;-67
2022/05/22 06:37:36;;;;;;;1.08;0.60;;;17.80;81.30;17.90;100723.00;;;;4972886;28;101002;-68
2022/05/22 06:40:04;;;;;;;0.52;0.43;;;17.80;80.80;18.00;100726.00;;;;4964680;28;116037;-69
2022/05/22 06:42:34;;;;;;;0.52;0.52;;;17.90;80.60;18.20;100720.00;;;;4972092;28;106868;-68
2022/05/22 06:45:13;;;;;;;0.70;0.40;;;18.00;81.20;18.40;100714.00;;;;4968266;28;88367;-69
2022/05/22 06:47:41;;;;;;;0.40;0.40;;;18.20;80.60;18.60;100712.00;;;;4954509;28;88183;-68
2022/05/22 06:50:13;;;;;;;0.98;0.52;;;18.40;80.40;18.80;100707.00;;;;4972370;28;93580;-67
2022/05/22 06:52:45;;;;;;;0.82;0.50;;;18.60;77.10;18.80;100708.00;;;;4964465;28;107246;-69
2022/05/22 06:55:12;;;;;;;1.95;0.57;;;18.70;75.90;18.80;100711.00;;;;4931872;28;87944;-67
2022/05/22 06:57:39;;;;;;;1.15;0.70;;;18.70;74.20;18.80;100713.00;;;;4971764;28;93534;-68
2022/05/22 07:00:13;;;;;;;0.52;0.40;;;18.70;73.70;18.90;100714.00;;;;4963455;28;87937;-67
2022/05/22 07:02:39;;;;;;;1.23;0.85;;;18.80;73.90;19.10;100716.00;;;;4954528;28;87885;-69
2022/05/22 07:05:06;;;;;;;3.80;0.77;;;18.90;73.90;19.20;100710.00;;;;4949102;28;88132;-68
2022/05/22 07:07:32;;;;;;;0.85;0.57;;;19.00;73.60;19.50;100706.00;;;;4969267;28;87940;-69
2022/05/22 07:09:57;;;;;;;0.40;0.40;;;19.30;73.30;19.70;100695.00;;;;4972895;28;88300;-68
2022/05/22 07:12:26;;;;;;;5.78;0.80;;;19.50;71.90;19.90;100701.00;;;;4972668;28;87792;-67
2022/05/22 07:14:56;;;;;;;1.40;0.60;;;19.70;70.20;20.10;100688.00;;;;4966090;28;111618;-68
2022/05/22 07:17:24;;;;;;;0.60;0.50;;;19.90;69.70;20.40;100695.00;;;;4972352;28;88884;-69
2022/05/22 07:19:52;;;;;;;3.95;0.73;;;20.10;68.50;20.50;100695.00;;;;4972885;28;88506;-67
2022/05/22 07:22:17;;;;;;;0.35;0.35;;;20.30;65.70;20.60;100696.00;;;;4972552;28;89026;-68
2022/05/22 07:24:43;;;;;;;0.73;0.50;;;20.40;66.50;20.60;100698.00;;;;4966519;28;102088;-67
2022/05/22 07:27:09;;;;;;;0.40;0.40;;;20.50;64.80;20.80;100678.00;;;;4972282;28;88334;-68
2022/05/22 07:29:35;;;;;;;2.38;0.57;;;20.60;64.90;21.00;100691.00;;;;4972619;28;88874;-67
2022/05/22 07:32:04;;;;;;;2.45;0.88;;;20.80;63.40;20.90;100671.00;;;;4968191;28;115408;-67
2022/05/22 07:34:30;;;;;;;0.55;0.50;;;20.80;61.20;20.80;100679.00;;;;4970134;28;87011;-67
2022/05/22 07:36:59;;;;;;;0.68;0.60;;;20.70;61.10;20.70;100679.00;;;;4969147;28;87723;-68
2022/05/22 07:39:25;;;;;;;0.63;0.60;;;20.70;60.90;20.60;100673.00;;;;4933429;28;89640;-68
2022/05/22 07:41:51;;;;;;;0.30;0.30;;;20.60;61.00;20.70;100672.00;;;;4953525;28;88638;-69
2022/05/22 07:44:17;;;;;;;0.60;0.40;;;20.60;60.10;20.70;100669.00;;;;4952934;28;110153;-67
2022/05/22 07:46:43;;;;;;;0.40;0.40;;;20.60;59.40;20.70;100673.00;;;;4966234;28;109535;-67
2022/05/22 07:49:08;;;;;;;1.65;0.68;;;20.60;59.10;20.80;100662.00;;;;4969877;28;118223;-67
2022/05/22 07:51:34;;;;;;;0.95;0.55;;;20.70;58.90;21.00;100668.00;;;;4963473;28;104660;-67
2022/05/22 07:54:00;;;;;;;1.35;0.88;;;20.80;59.50;21.10;100663.00;;;;4971205;28;110601;-67
2022/05/22 07:56:26;;;;;;;1.35;0.60;;;21.00;57.40;21.00;100653.00;;;;4971422;28;96902;-68
2022/05/22 07:58:51;;;;;;;0.73;0.38;;;20.90;57.50;21.00;100658.00;;;;4971174;28;116209;-67
2022/05/22 08:01:18;;;;;;;2.13;1.15;;;20.90;58.00;21.20;100651.00;;;;4966696;28;87886;-67
2022/05/22 08:03:45;;;;;;;1.60;0.73;;;21.00;58.10;21.50;100656.00;;;;4971474;28;103576;-68
2022/05/22 08:06:11;;;;;;;0.77;0.77;;;21.20;58.00;21.50;100658.00;;;;4970652;28;89294;-69
2022/05/22 08:08:37;;;;;;;0.70;0.70;;;21.40;56.10;21.50;100660.00;;;;4953122;28;94171;-67
2022/05/22 08:11:03;;;;;;;1.00;0.65;;;21.40;56.30;21.60;100662.00;;;;4965532;28;87767;-67
2022/05/22 08:13:34;;;;;;;0.93;0.60;;;21.50;56.30;21.60;100655.00;;;;4971514;28;102120;-67
2022/05/22 08:16:00;;;;;;;2.05;0.82;;;21.50;55.60;21.70;100658.00;;;;4972380;28;87891;-67
2022/05/22 08:18:26;;;;;;;3.63;0.45;;;21.60;55.50;21.70;100656.00;;;;4953274;28;87773;-67
2022/05/22 08:20:53;;;;;;;2.65;0.82;;;21.60;55.20;21.80;100658.00;;;;4964617;28;109894;-67
2022/05/22 08:23:21;;;;;;;2.17;0.30;;;21.60;55.60;22.00;100655.00;;;;4971925;28;86949;-66
2022/05/22 08:25:48;;;;;;;2.47;0.50;;;21.80;55.50;22.10;100665.00;;;;4971615;28;88025;-68
2022/05/22 08:28:15;;;;;;;1.40;0.60;;;21.90;55.20;22.20;100665.00;;;;4962717;28;105316;-67
2022/05/22 08:30:42;;;;;;;1.55;0.55;;;22.00;54.30;22.40;100655.00;;;;4959345;28;89223;-66
2022/05/22 08:33:08;;;;;;;2.42;0.38;;;22.10;54.10;22.60;100655.00;;;;4969977;28;87748;-67
2022/05/22 08:35:37;;;;;;;1.35;0.80;;;22.30;54.30;22.70;100667.00;;;;4970629;28;108811;-66
2022/05/22 08:38:04;;;;;;;4.00;0.70;;;22.40;53.90;22.70;100665.00;;;;4970512;28;88190;-67
2022/05/22 08:40:47;;;;;;;2.80;1.08;;;22.50;53.30;22.80;100667.00;;;;4967171;28;89063;-67
2022/05/22 08:43:29;;;;;;;3.40;0.63;;;22.60;53.50;22.80;100662.00;;;;4934901;28;88104;-69
2022/05/22 08:46:14;;;;;;;0.65;0.40;;;22.70;51.60;22.60;100670.00;;;;4952582;28;87819;-68
2022/05/22 08:48:51;;;;;;;0.43;0.40;;;22.50;51.50;22.60;100669.00;;;;4971449;28;87134;-68
2022/05/22 08:51:31;;;;;;;2.30;0.47;;;22.50;51.70;22.60;100665.00;;;;4963880;28;101237;-68
2022/05/22 08:54:13;;;;;;;1.23;0.50;;;22.50;52.00;22.60;100665.00;;;;4971533;28;87806;-66
2022/05/22 08:59:32;;;;;;;1.10;0.45;;;22.50;51.20;22.70;100668.00;;;;4971180;28;88033;-68
2022/05/22 09:02:45;;;;;;;1.23;0.70;;;22.50;50.90;23.00;100672.00;;;;4945340;28;87779;-67
2022/05/22 09:05:21;;;;;;;1.25;0.50;;;22.70;51.40;23.20;100669.00;;;;4921367;28;87905;-73
2022/05/22 09:07:55;;;;;;;0.10;0.10;;;22.80;51.00;23.20;100669.00;;;;4952365;28;87836;-70
2022/05/22 09:10:37;;;;;;;3.03;0.75;;;23.00;50.00;23.00;100669.00;;;;4952447;28;88955;-67
2022/05/22 09:13:24;;;;;;;0.68;0.68;;;22.80;49.90;22.90;100663.00;;;;4965678;28;88404;-67
2022/05/22 09:16:13;;;;;;;0.60;0.40;;;22.80;49.80;22.90;100657.00;;;;4972007;28;87307;-69
2022/05/22 09:19:08;;;;;;;0.50;0.50;;;22.70;50.20;22.80;100662.00;;;;4912781;28;87975;-71
2022/05/22 09:22:07;;;;;;;0.35;0.35;;;22.70;50.20;22.60;100664.00;;;;4946426;28;92872;-67
2022/05/22 09:25:08;;;;;;;0.30;0.30;;;22.60;50.20;22.40;100664.00;;;;4973874;28;88888;-68
2022/05/22 09:28:33;;;;;;;0.50;0.50;;;22.40;50.60;22.20;100662.00;;;;4956074;28;88250;-67
2022/05/22 09:31:24;;;;;;;3.40;0.93;;;22.20;49.30;21.90;100673.00;;;;4902096;28;87975;-68
2022/05/22 09:34:10;;;;;;;1.00;0.63;;;21.80;49.80;21.90;100662.00;;;;4970937;28;87798;-71
2022/05/22 09:37:09;;;;;;;0.30;0.30;;;21.80;50.20;22.20;100662.00;;;;4955049;28;97966;-70
2022/05/22 09:40:14;;;;;;;1.77;0.77;;;22.00;50.60;22.50;100678.00;;;;4942892;28;100804;-73
2022/05/22 09:42:51;;;;;;;2.30;0.80;;;22.10;50.60;22.60;100671.00;;;;4966225;28;87926;-71
2022/05/22 09:45:58;;;;;;;2.58;1.38;;;22.30;50.40;22.60;100672.00;;;;4973859;28;87018;-71
2022/05/22 09:48:52;;;;;;;1.13;0.70;;;22.30;50.20;22.80;100664.00;;;;4966188;28;87896;-71
2022/05/22 09:51:57;;;;;;;1.92;0.70;;;22.50;49.70;23.10;100657.00;;;;4948984;28;88136;-71
2022/05/22 09:55:00;;;;;;;0.65;0.60;;;22.70;49.60;23.50;100660.00;;;;4954405;28;93693;-70
2022/05/22 09:57:45;;;;;;;1.33;0.35;;;23.00;48.80;23.60;100658.00;;;;4972051;28;109832;-74
2022/05/22 10:00:27;;;;;;;2.67;1.10;;;23.20;48.20;23.50;100664.00;;;;4969093;28;99960;-72
2022/05/22 10:03:34;;;;;;;0.88;0.52;;;23.20;48.00;23.40;100655.00;;;;4978092;28;96213;-72
2022/05/22 10:06:32;;;;;;;0.70;0.70;;;23.10;48.60;23.70;100651.00;;;;4926909;28;88170;-72
2022/05/22 10:09:37;;;;;;;0.82;0.52;;;23.20;48.50;24.10;100650.00;;;;4960332;28;103415;-70
2022/05/22 10:12:38;;;;;;;0.57;0.52;;;23.50;48.00;24.50;100636.00;;;;4953145;28;91168;-72
2022/05/22 10:15:34;;;;;;;0.40;0.40;;;23.90;46.90;24.90;100641.00;;;;4954426;28;87007;-72
2022/05/22 10:18:12;;;;;;;0.32;0.30;;;24.30;46.00;25.00;100646.00;;;;4954994;28;87872;-70
2022/05/22 10:21:03;;;;;;;1.42;0.57;;;24.50;45.40;25.00;100642.00;;;;4968860;28;87717;-72
2022/05/22 10:24:25;;;;;;;0.65;0.65;;;24.50;44.80;25.10;100635.00;;;;4965275;28;88950;-73
2022/05/22 10:27:21;;;;;;;0.93;0.47;;;24.60;44.80;25.20;100638.00;;;;4953926;28;87761;-72
2022/05/22 10:30:03;;;;;;;0.47;0.47;;;24.70;45.20;25.60;100639.00;;;;4952041;28;87829;-71
2022/05/22 10:32:32;;;;;;;3.83;0.85;;;24.90;45.30;25.80;100645.00;;;;4934956;28;88082;-71
2022/05/22 10:35:06;;;;;;;1.95;0.63;;;25.20;44.30;26.00;100647.00;;;;4934421;28;88421;-70
2022/05/22 10:37:52;;;;;;;0.43;0.40;;;25.40;44.10;26.10;100645.00;;;;4942689;28;88386;-70
2022/05/22 10:40:23;;;;;;;0.60;0.60;;;25.50;43.60;26.00;100651.00;;;;4917304;28;102823;-73
2022/05/22 10:42:56;;;;;;;0.60;0.30;;;25.50;43.60;25.80;100644.00;;;;4923021;28;87282;-74
2022/05/22 10:45:36;;;;;;;1.50;0.40;;;25.40;44.00;25.40;100646.00;;;;4929369;28;88050;-69
2022/05/22 10:48:21;;;;;;;0.80;0.60;;;25.20;44.50;25.40;100643.00;;;;4914334;28;88228;-72
2022/05/22 10:51:10;;;;;;;0.70;0.40;;;25.00;44.60;25.60;100640.00;;;;4932641;28;88715;-69
2022/05/22 10:53:47;;;;;;;0.32;0.32;;;25.10;44.80;25.70;100643.00;;;;4937836;28;88274;-72
2022/05/22 10:56:29;;;;;;;1.63;0.75;;;25.20;43.20;25.50;100650.00;;;;4952031;28;110207;-69
2022/05/22 10:58:58;;;;;;;0.60;0.30;;;25.10;43.50;25.30;100633.00;;;;4929669;28;87782;-69
2022/05/22 11:01:29;;;;;;;0.70;0.70;;;24.90;43.90;25.30;100638.00;;;;4950138;28;100894;-70
2022/05/22 11:04:11;;;;;;;3.28;0.77;;;24.90;44.00;25.50;100641.00;;;;4942263;28;89030;-71
2022/05/22 11:07:05;;;;;;;0.57;0.57;;;25.00;44.20;25.60;100637.00;;;;4947390;28;88278;-71
2022/05/22 11:10:04;;;;;;;1.48;0.77;;;25.10;43.60;25.50;100624.00;;;;4903504;28;87185;-70
2022/05/22 11:12:29;;;;;;;0.85;0.75;;;25.10;42.90;25.70;100620.00;;;;4929791;28;92894;-71
2022/05/22 11:15:28;;;;;;;0.93;0.60;;;25.20;43.20;26.00;100625.00;;;;4940915;28;117777;-71